Georgia Highway — 7JCV — position and weather

sailwx.info

Track history (hours):
 
Tides and Currents Weather Stations Pressure Air Temp Water Temp Dewpoint Dewpoint Depression Visibility Wind Speed Wind Dir Waves Ship Positions

Georgia Highway

Last reported at 2014-Nov-23 09:33 UTC. Time now 2014-Nov-23 10:01 UTC.
Position N 53°12' E 004°32'.

Length 199 m; draft 9 m.

Type: Ship. MMSI: 432629000.

Date/timePositionNaut miles runAvg speedWind from/ knotsBaromVisibWave heightAir tempDewpointWater temp
2014-Nov-23 09:33N 53°12' E 004°32'1615.0
2014-Nov-23 08:31N 52°58' E 004°21'1414.7
2014-Nov-23 07:33N 52°46' E 004°08'1515.2
2014-Nov-23 06:33N 52°35' E 003°51'1615.6
2014-Nov-23 05:33N 52°24' E 003°33'6715.4
2014-Nov-23 01:13N 51°25' E 002°43'811.1
2014-Nov-23 00:32N 51°25' E 002°55'1212.0
2014-Nov-22 23:33N 51°21' E 003°12'2 1.6
2014-Nov-22 22:32N 51°19' E 003°13'1 1.2
2014-Nov-22 21:18N 51°18' E 003°14'0 0.0
2014-Nov-22 20:33N 51°18' E 003°14'0 0.0
2014-Nov-22 19:30N 51°18' E 003°14'0 0.0
2014-Nov-22 18:33N 51°18' E 003°14'0 0.0
2014-Nov-22 17:24N 51°18' E 003°14'0 0.0
2014-Nov-22 16:33N 51°18' E 003°14'0 0.0
2014-Nov-22 15:33N 51°18' E 003°14'0 0.0
2014-Nov-22 14:30N 51°18' E 003°14'0 0.0
2014-Nov-22 13:33N 51°18' E 003°14'0 0.0
2014-Nov-22 12:27N 51°18' E 003°14'0 0.5
2014-Nov-22 11:34N 51°18' E 003°14'2 1.8
2014-Nov-22 10:33N 51°20' E 003°13'3 2.9
2014-Nov-22 09:34N 51°22' E 003°10'1514.5
2014-Nov-22 08:33N 51°22' E 002°47'8 8.0
2014-Nov-22 07:32N 51°22' E 002°34'0 0.3
2014-Nov-22 06:33N 51°22' E 002°34'7 6.5
2014-Nov-22 05:25N 51°20' E 002°23'1517.8
2014-Nov-22 04:33N 51°13' E 002°01'1818.1
2014-Nov-22 03:33N 51°03' E 001°37'1918.7
2014-Nov-22 02:32N 50°46' E 001°23'1817.9
2014-Nov-22 01:33N 50°34' E 001°03'1717.6
2014-Nov-22 00:33N 50°28' E 000°37'1817.8
2014-Nov-21 23:33N 50°23' E 000°10'4118.8
2014-Nov-21 21:23N 50°12' W 000°51'38517.6
2014-Nov-20 23:29N 50°33' W 010°54'1916.9
2014-Nov-20 22:21N 50°36' W 011°24'  
2014-Nov-13 14:33N 34°24' W 076°09'1918.5
2014-Nov-13 13:32N 34°11' W 076°26'  
Track history (hours):
 
Tides and Currents Weather Stations Pressure Air Temp Water Temp Dewpoint Dewpoint Depression Visibility Wind Speed Wind Dir Waves Ship Positions

Georgia Highway

Last reported at 2014-Nov-23 09:33 UTC. Time now 2014-Nov-23 10:01 UTC.
Position N 53°12' E 004°32'.

Length 199 m; draft 9 m.

Type: Ship. MMSI: 432629000.

Date/timePositionNaut miles runAvg speedWind from/ knotsBaromVisibWave heightAir tempDewpointWater temp
2014-Nov-23 09:33N 53°12' E 004°32'1615.0
2014-Nov-23 08:31N 52°58' E 004°21'1414.7
2014-Nov-23 07:33N 52°46' E 004°08'1515.2
2014-Nov-23 06:33N 52°35' E 003°51'1615.6
2014-Nov-23 05:33N 52°24' E 003°33'6715.4
2014-Nov-23 01:13N 51°25' E 002°43'811.1
2014-Nov-23 00:32N 51°25' E 002°55'1212.0
2014-Nov-22 23:33N 51°21' E 003°12'2 1.6
2014-Nov-22 22:32N 51°19' E 003°13'1 1.2
2014-Nov-22 21:18N 51°18' E 003°14'0 0.0
2014-Nov-22 20:33N 51°18' E 003°14'0 0.0
2014-Nov-22 19:30N 51°18' E 003°14'0 0.0
2014-Nov-22 18:33N 51°18' E 003°14'0 0.0
2014-Nov-22 17:24N 51°18' E 003°14'0 0.0
2014-Nov-22 16:33N 51°18' E 003°14'0 0.0
2014-Nov-22 15:33N 51°18' E 003°14'0 0.0
2014-Nov-22 14:30N 51°18' E 003°14'0 0.0
2014-Nov-22 13:33N 51°18' E 003°14'0 0.0
2014-Nov-22 12:27N 51°18' E 003°14'0 0.5
2014-Nov-22 11:34N 51°18' E 003°14'2 1.8
2014-Nov-22 10:33N 51°20' E 003°13'3 2.9
2014-Nov-22 09:34N 51°22' E 003°10'1514.5
2014-Nov-22 08:33N 51°22' E 002°47'8 8.0
2014-Nov-22 07:32N 51°22' E 002°34'0 0.3
2014-Nov-22 06:33N 51°22' E 002°34'7 6.5
2014-Nov-22 05:25N 51°20' E 002°23'1517.8
2014-Nov-22 04:33N 51°13' E 002°01'1818.1
2014-Nov-22 03:33N 51°03' E 001°37'1918.7
2014-Nov-22 02:32N 50°46' E 001°23'1817.9
2014-Nov-22 01:33N 50°34' E 001°03'1717.6
2014-Nov-22 00:33N 50°28' E 000°37'1817.8
2014-Nov-21 23:33N 50°23' E 000°10'4118.8
2014-Nov-21 21:23N 50°12' W 000°51'38517.6
2014-Nov-20 23:29N 50°33' W 010°54'1916.9
2014-Nov-20 22:21N 50°36' W 011°24'  
2014-Nov-13 14:33N 34°24' W 076°09'1918.5
2014-Nov-13 13:32N 34°11' W 076°26'  

Dump ship's entire track history